sensor_id;sensor_type;location;lat;lon;timestamp;P1;durP1;ratioP1;P2;durP2;ratioP2
4726;SDS011;2377;51.734;8.950;2022-09-02T00:01:18;3.60;;;1.10;;
4726;SDS011;2377;51.734;8.950;2022-09-02T00:03:48;2.13;;;1.10;;
4726;SDS011;2377;51.734;8.950;2022-09-02T00:06:17;4.27;;;1.17;;
4726;SDS011;2377;51.734;8.950;2022-09-02T00:08:46;2.20;;;1.20;;
4726;SDS011;2377;51.734;8.950;2022-09-02T00:11:14;2.43;;;1.13;;
4726;SDS011;2377;51.734;8.950;2022-09-02T00:13:45;3.47;;;1.20;;
4726;SDS011;2377;51.734;8.950;2022-09-02T00:16:13;3.57;;;1.20;;
4726;SDS011;2377;51.734;8.950;2022-09-02T00:18:41;2.20;;;1.10;;
4726;SDS011;2377;51.734;8.950;2022-09-02T00:21:09;2.70;;;1.07;;
4726;SDS011;2377;51.734;8.950;2022-09-02T00:23:38;4.53;;;1.30;;
4726;SDS011;2377;51.734;8.950;2022-09-02T00:26:08;2.30;;;1.10;;
4726;SDS011;2377;51.734;8.950;2022-09-02T00:28:36;2.37;;;1.20;;
4726;SDS011;2377;51.734;8.950;2022-09-02T00:31:04;2.60;;;1.10;;
4726;SDS011;2377;51.734;8.950;2022-09-02T00:33:31;2.20;;;1.00;;
4726;SDS011;2377;51.734;8.950;2022-09-02T00:35:59;2.93;;;1.13;;
4726;SDS011;2377;51.734;8.950;2022-09-02T00:38:29;3.27;;;1.30;;
4726;SDS011;2377;51.734;8.950;2022-09-02T00:40:59;3.07;;;1.30;;
4726;SDS011;2377;51.734;8.950;2022-09-02T00:43:39;2.27;;;1.10;;
4726;SDS011;2377;51.734;8.950;2022-09-02T00:46:11;2.77;;;1.20;;
4726;SDS011;2377;51.734;8.950;2022-09-02T00:48:41;2.53;;;1.20;;
4726;SDS011;2377;51.734;8.950;2022-09-02T00:51:14;3.10;;;1.40;;
4726;SDS011;2377;51.734;8.950;2022-09-02T00:53:42;2.47;;;1.10;;
4726;SDS011;2377;51.734;8.950;2022-09-02T00:56:13;2.57;;;1.20;;
4726;SDS011;2377;51.734;8.950;2022-09-02T00:58:48;3.30;;;1.00;;
4726;SDS011;2377;51.734;8.950;2022-09-02T01:01:18;3.70;;;1.37;;
4726;SDS011;2377;51.734;8.950;2022-09-02T01:03:46;2.00;;;1.00;;
4726;SDS011;2377;51.734;8.950;2022-09-02T01:06:15;2.40;;;1.20;;
4726;SDS011;2377;51.734;8.950;2022-09-02T01:08:50;2.70;;;1.20;;
4726;SDS011;2377;51.734;8.950;2022-09-02T01:11:26;2.30;;;1.10;;
4726;SDS011;2377;51.734;8.950;2022-09-02T01:13:58;2.20;;;1.20;;
4726;SDS011;2377;51.734;8.950;2022-09-02T01:16:28;2.00;;;1.00;;
4726;SDS011;2377;51.734;8.950;2022-09-02T01:19:02;2.33;;;1.10;;
4726;SDS011;2377;51.734;8.950;2022-09-02T01:21:43;2.73;;;1.03;;
4726;SDS011;2377;51.734;8.950;2022-09-02T01:24:12;2.80;;;1.10;;
4726;SDS011;2377;51.734;8.950;2022-09-02T01:26:41;3.17;;;1.20;;
4726;SDS011;2377;51.734;8.950;2022-09-02T01:29:08;5.00;;;1.30;;
4726;SDS011;2377;51.734;8.950;2022-09-02T01:31:35;3.67;;;1.40;;
4726;SDS011;2377;51.734;8.950;2022-09-02T01:34:02;4.00;;;1.20;;
4726;SDS011;2377;51.734;8.950;2022-09-02T01:36:31;3.20;;;1.23;;
4726;SDS011;2377;51.734;8.950;2022-09-02T01:39:00;7.50;;;1.20;;
4726;SDS011;2377;51.734;8.950;2022-09-02T01:41:27;6.93;;;1.50;;
4726;SDS011;2377;51.734;8.950;2022-09-02T01:43:54;2.83;;;1.27;;
4726;SDS011;2377;51.734;8.950;2022-09-02T01:46:21;3.17;;;1.10;;
4726;SDS011;2377;51.734;8.950;2022-09-02T01:48:48;4.93;;;1.40;;
4726;SDS011;2377;51.734;8.950;2022-09-02T01:51:17;2.40;;;1.10;;
4726;SDS011;2377;51.734;8.950;2022-09-02T01:53:45;7.43;;;1.20;;
4726;SDS011;2377;51.734;8.950;2022-09-02T01:56:15;2.30;;;1.20;;
4726;SDS011;2377;51.734;8.950;2022-09-02T01:58:42;2.27;;;1.30;;
4726;SDS011;2377;51.734;8.950;2022-09-02T02:01:09;3.00;;;1.20;;
4726;SDS011;2377;51.734;8.950;2022-09-02T02:03:37;5.17;;;1.50;;
4726;SDS011;2377;51.734;8.950;2022-09-02T02:06:06;2.37;;;1.23;;
4726;SDS011;2377;51.734;8.950;2022-09-02T02:08:35;2.97;;;1.20;;
4726;SDS011;2377;51.734;8.950;2022-09-02T02:11:02;3.30;;;1.27;;
4726;SDS011;2377;51.734;8.950;2022-09-02T02:13:31;2.70;;;1.30;;
4726;SDS011;2377;51.734;8.950;2022-09-02T02:15:59;2.50;;;1.10;;
4726;SDS011;2377;51.734;8.950;2022-09-02T02:18:26;2.20;;;1.30;;
4726;SDS011;2377;51.734;8.950;2022-09-02T02:20:55;2.13;;;1.17;;
4726;SDS011;2377;51.734;8.950;2022-09-02T02:23:22;3.23;;;1.50;;
4726;SDS011;2377;51.734;8.950;2022-09-02T02:25:49;2.07;;;1.10;;
4726;SDS011;2377;51.734;8.950;2022-09-02T02:28:16;3.43;;;1.23;;
4726;SDS011;2377;51.734;8.950;2022-09-02T02:30:45;2.40;;;1.20;;
4726;SDS011;2377;51.734;8.950;2022-09-02T02:33:12;2.00;;;1.10;;
4726;SDS011;2377;51.734;8.950;2022-09-02T02:35:39;2.20;;;1.17;;
4726;SDS011;2377;51.734;8.950;2022-09-02T02:38:07;2.60;;;1.30;;
4726;SDS011;2377;51.734;8.950;2022-09-02T02:40:35;2.30;;;1.10;;
4726;SDS011;2377;51.734;8.950;2022-09-02T02:43:02;3.30;;;1.40;;
4726;SDS011;2377;51.734;8.950;2022-09-02T02:45:29;3.03;;;1.20;;
4726;SDS011;2377;51.734;8.950;2022-09-02T02:47:58;3.13;;;1.40;;
4726;SDS011;2377;51.734;8.950;2022-09-02T02:50:25;3.43;;;1.30;;
4726;SDS011;2377;51.734;8.950;2022-09-02T02:52:53;4.20;;;1.27;;
4726;SDS011;2377;51.734;8.950;2022-09-02T02:55:20;3.33;;;1.13;;
4726;SDS011;2377;51.734;8.950;2022-09-02T02:57:49;5.13;;;1.30;;
4726;SDS011;2377;51.734;8.950;2022-09-02T03:00:19;2.80;;;1.37;;
4726;SDS011;2377;51.734;8.950;2022-09-02T03:02:50;2.17;;;1.20;;
4726;SDS011;2377;51.734;8.950;2022-09-02T03:05:22;2.03;;;1.20;;
4726;SDS011;2377;51.734;8.950;2022-09-02T03:07:51;2.83;;;1.40;;
4726;SDS011;2377;51.734;8.950;2022-09-02T03:10:18;3.10;;;1.40;;
4726;SDS011;2377;51.734;8.950;2022-09-02T03:12:46;6.57;;;1.30;;
4726;SDS011;2377;51.734;8.950;2022-09-02T03:15:14;2.77;;;1.27;;
4726;SDS011;2377;51.734;8.950;2022-09-02T03:17:43;2.10;;;1.20;;
4726;SDS011;2377;51.734;8.950;2022-09-02T03:20:12;3.70;;;1.37;;
4726;SDS011;2377;51.734;8.950;2022-09-02T03:22:43;4.20;;;1.40;;
4726;SDS011;2377;51.734;8.950;2022-09-02T03:25:13;3.80;;;1.57;;
4726;SDS011;2377;51.734;8.950;2022-09-02T03:27:44;5.83;;;1.50;;
4726;SDS011;2377;51.734;8.950;2022-09-02T03:30:13;2.40;;;1.30;;
4726;SDS011;2377;51.734;8.950;2022-09-02T03:32:43;3.40;;;1.30;;
4726;SDS011;2377;51.734;8.950;2022-09-02T03:35:11;3.57;;;1.43;;
4726;SDS011;2377;51.734;8.950;2022-09-02T03:37:44;3.60;;;1.30;;
4726;SDS011;2377;51.734;8.950;2022-09-02T03:40:13;3.97;;;1.47;;
4726;SDS011;2377;51.734;8.950;2022-09-02T03:42:43;7.93;;;1.60;;
4726;SDS011;2377;51.734;8.950;2022-09-02T03:45:11;6.20;;;1.50;;
4726;SDS011;2377;51.734;8.950;2022-09-02T03:47:40;3.27;;;1.20;;
4726;SDS011;2377;51.734;8.950;2022-09-02T03:50:15;3.27;;;1.40;;
4726;SDS011;2377;51.734;8.950;2022-09-02T03:52:44;5.10;;;1.30;;
4726;SDS011;2377;51.734;8.950;2022-09-02T03:55:11;2.20;;;1.00;;
4726;SDS011;2377;51.734;8.950;2022-09-02T03:57:38;3.17;;;1.57;;
4726;SDS011;2377;51.734;8.950;2022-09-02T04:00:06;2.57;;;1.30;;
4726;SDS011;2377;51.734;8.950;2022-09-02T04:02:35;3.70;;;1.60;;
4726;SDS011;2377;51.734;8.950;2022-09-02T04:05:03;2.50;;;1.20;;
4726;SDS011;2377;51.734;8.950;2022-09-02T04:07:31;2.93;;;1.47;;
4726;SDS011;2377;51.734;8.950;2022-09-02T04:10:00;3.00;;;1.60;;
4726;SDS011;2377;51.734;8.950;2022-09-02T04:12:28;3.30;;;1.30;;
4726;SDS011;2377;51.734;8.950;2022-09-02T04:14:55;2.30;;;1.37;;
4726;SDS011;2377;51.734;8.950;2022-09-02T04:17:22;4.27;;;1.40;;
4726;SDS011;2377;51.734;8.950;2022-09-02T04:19:49;3.00;;;1.50;;
4726;SDS011;2377;51.734;8.950;2022-09-02T04:22:19;2.50;;;1.40;;
4726;SDS011;2377;51.734;8.950;2022-09-02T04:24:46;3.70;;;1.50;;
4726;SDS011;2377;51.734;8.950;2022-09-02T04:27:15;4.50;;;1.50;;
4726;SDS011;2377;51.734;8.950;2022-09-02T04:29:42;12.83;;;2.00;;
4726;SDS011;2377;51.734;8.950;2022-09-02T04:32:09;3.70;;;1.77;;
4726;SDS011;2377;51.734;8.950;2022-09-02T04:34:36;3.37;;;1.60;;
4726;SDS011;2377;51.734;8.950;2022-09-02T04:37:03;4.90;;;1.73;;
4726;SDS011;2377;51.734;8.950;2022-09-02T04:39:31;4.73;;;1.63;;
4726;SDS011;2377;51.734;8.950;2022-09-02T04:41:58;3.27;;;1.40;;
4726;SDS011;2377;51.734;8.950;2022-09-02T04:44:26;5.60;;;1.63;;
4726;SDS011;2377;51.734;8.950;2022-09-02T04:46:53;3.83;;;1.40;;
4726;SDS011;2377;51.734;8.950;2022-09-02T04:49:21;2.17;;;1.30;;
4726;SDS011;2377;51.734;8.950;2022-09-02T04:51:48;3.63;;;1.57;;
4726;SDS011;2377;51.734;8.950;2022-09-02T04:54:15;3.93;;;2.00;;
4726;SDS011;2377;51.734;8.950;2022-09-02T04:56:42;7.40;;;2.20;;
4726;SDS011;2377;51.734;8.950;2022-09-02T04:59:09;3.10;;;1.80;;
4726;SDS011;2377;51.734;8.950;2022-09-02T05:01:38;4.20;;;1.80;;
4726;SDS011;2377;51.734;8.950;2022-09-02T05:04:06;2.80;;;1.37;;
4726;SDS011;2377;51.734;8.950;2022-09-02T05:06:34;3.27;;;1.53;;
4726;SDS011;2377;51.734;8.950;2022-09-02T05:09:04;3.20;;;1.40;;
4726;SDS011;2377;51.734;8.950;2022-09-02T05:11:32;3.83;;;1.90;;
4726;SDS011;2377;51.734;8.950;2022-09-02T05:14:01;3.57;;;1.90;;
4726;SDS011;2377;51.734;8.950;2022-09-02T05:16:32;2.70;;;1.63;;
4726;SDS011;2377;51.734;8.950;2022-09-02T05:19:04;3.07;;;1.80;;
4726;SDS011;2377;51.734;8.950;2022-09-02T05:21:33;2.93;;;1.70;;
4726;SDS011;2377;51.734;8.950;2022-09-02T05:24:04;3.00;;;1.73;;
4726;SDS011;2377;51.734;8.950;2022-09-02T05:26:31;3.80;;;1.60;;
4726;SDS011;2377;51.734;8.950;2022-09-02T05:29:00;6.23;;;2.00;;
4726;SDS011;2377;51.734;8.950;2022-09-02T05:31:27;3.50;;;1.67;;
4726;SDS011;2377;51.734;8.950;2022-09-02T05:33:55;3.70;;;1.77;;
4726;SDS011;2377;51.734;8.950;2022-09-02T05:36:23;2.80;;;1.60;;
4726;SDS011;2377;51.734;8.950;2022-09-02T05:38:50;4.60;;;1.90;;
4726;SDS011;2377;51.734;8.950;2022-09-02T05:41:18;3.00;;;1.70;;
4726;SDS011;2377;51.734;8.950;2022-09-02T05:43:48;4.60;;;1.70;;
4726;SDS011;2377;51.734;8.950;2022-09-02T05:46:17;3.50;;;1.73;;
4726;SDS011;2377;51.734;8.950;2022-09-02T05:48:47;5.60;;;1.83;;
4726;SDS011;2377;51.734;8.950;2022-09-02T05:51:33;6.83;;;1.70;;
4726;SDS011;2377;51.734;8.950;2022-09-02T05:54:07;4.47;;;1.60;;
4726;SDS011;2377;51.734;8.950;2022-09-02T05:56:37;4.30;;;1.80;;
4726;SDS011;2377;51.734;8.950;2022-09-02T05:59:06;2.97;;;1.73;;
4726;SDS011;2377;51.734;8.950;2022-09-02T06:01:34;5.50;;;1.80;;
4726;SDS011;2377;51.734;8.950;2022-09-02T06:04:02;5.47;;;1.97;;
4726;SDS011;2377;51.734;8.950;2022-09-02T06:06:32;4.30;;;1.80;;
4726;SDS011;2377;51.734;8.950;2022-09-02T06:09:03;6.83;;;1.80;;
4726;SDS011;2377;51.734;8.950;2022-09-02T06:11:32;3.73;;;2.10;;
4726;SDS011;2377;51.734;8.950;2022-09-02T06:14:04;2.63;;;1.70;;
4726;SDS011;2377;51.734;8.950;2022-09-02T06:16:31;5.83;;;1.60;;
4726;SDS011;2377;51.734;8.950;2022-09-02T06:19:00;3.67;;;1.93;;
4726;SDS011;2377;51.734;8.950;2022-09-02T06:21:28;3.70;;;1.90;;
4726;SDS011;2377;51.734;8.950;2022-09-02T06:23:57;4.30;;;1.77;;
4726;SDS011;2377;51.734;8.950;2022-09-02T06:26:24;3.40;;;1.67;;
4726;SDS011;2377;51.734;8.950;2022-09-02T06:28:51;4.40;;;1.97;;
4726;SDS011;2377;51.734;8.950;2022-09-02T06:31:19;7.63;;;1.90;;
4726;SDS011;2377;51.734;8.950;2022-09-02T06:33:50;3.60;;;1.83;;
4726;SDS011;2377;51.734;8.950;2022-09-02T06:36:19;2.40;;;1.50;;
4726;SDS011;2377;51.734;8.950;2022-09-02T06:38:49;3.50;;;2.10;;
4726;SDS011;2377;51.734;8.950;2022-09-02T06:41:20;4.30;;;1.70;;
4726;SDS011;2377;51.734;8.950;2022-09-02T06:43:54;5.70;;;2.20;;
4726;SDS011;2377;51.734;8.950;2022-09-02T06:46:23;4.23;;;1.77;;
4726;SDS011;2377;51.734;8.950;2022-09-02T06:48:52;5.07;;;1.87;;
4726;SDS011;2377;51.734;8.950;2022-09-02T06:51:20;4.97;;;2.30;;
4726;SDS011;2377;51.734;8.950;2022-09-02T06:53:50;2.63;;;1.67;;
4726;SDS011;2377;51.734;8.950;2022-09-02T06:56:17;5.00;;;2.13;;
4726;SDS011;2377;51.734;8.950;2022-09-02T06:58:46;2.83;;;1.63;;
4726;SDS011;2377;51.734;8.950;2022-09-02T07:01:16;5.60;;;2.00;;
4726;SDS011;2377;51.734;8.950;2022-09-02T07:03:44;4.67;;;1.90;;
4726;SDS011;2377;51.734;8.950;2022-09-02T07:06:32;4.13;;;2.30;;
4726;SDS011;2377;51.734;8.950;2022-09-02T07:09:02;4.23;;;2.10;;
4726;SDS011;2377;51.734;8.950;2022-09-02T07:11:32;4.23;;;1.80;;
4726;SDS011;2377;51.734;8.950;2022-09-02T07:14:00;4.40;;;2.10;;
4726;SDS011;2377;51.734;8.950;2022-09-02T07:16:29;4.53;;;1.60;;
4726;SDS011;2377;51.734;8.950;2022-09-02T07:18:58;3.53;;;1.80;;
4726;SDS011;2377;51.734;8.950;2022-09-02T07:21:26;3.27;;;2.00;;
4726;SDS011;2377;51.734;8.950;2022-09-02T07:23:56;3.60;;;2.00;;
4726;SDS011;2377;51.734;8.950;2022-09-02T07:26:25;2.97;;;1.40;;
4726;SDS011;2377;51.734;8.950;2022-09-02T07:28:55;4.03;;;2.00;;
4726;SDS011;2377;51.734;8.950;2022-09-02T07:31:22;5.67;;;1.77;;
4726;SDS011;2377;51.734;8.950;2022-09-02T07:33:51;2.97;;;1.60;;
4726;SDS011;2377;51.734;8.950;2022-09-02T07:36:22;8.43;;;1.93;;
4726;SDS011;2377;51.734;8.950;2022-09-02T07:38:50;4.60;;;2.00;;
4726;SDS011;2377;51.734;8.950;2022-09-02T07:41:19;5.40;;;1.97;;
4726;SDS011;2377;51.734;8.950;2022-09-02T07:43:48;5.30;;;1.90;;
4726;SDS011;2377;51.734;8.950;2022-09-02T07:46:20;3.23;;;1.70;;
4726;SDS011;2377;51.734;8.950;2022-09-02T07:48:47;3.60;;;1.80;;
4726;SDS011;2377;51.734;8.950;2022-09-02T07:51:15;2.90;;;1.60;;
4726;SDS011;2377;51.734;8.950;2022-09-02T07:53:44;3.40;;;1.80;;
4726;SDS011;2377;51.734;8.950;2022-09-02T07:56:12;3.30;;;1.80;;
4726;SDS011;2377;51.734;8.950;2022-09-02T07:58:39;4.17;;;2.20;;
4726;SDS011;2377;51.734;8.950;2022-09-02T08:01:07;2.77;;;1.63;;
4726;SDS011;2377;51.734;8.950;2022-09-02T08:03:37;8.00;;;1.93;;
4726;SDS011;2377;51.734;8.950;2022-09-02T08:06:06;2.93;;;1.63;;
4726;SDS011;2377;51.734;8.950;2022-09-02T08:08:34;4.27;;;1.80;;
4726;SDS011;2377;51.734;8.950;2022-09-02T08:11:01;3.03;;;1.80;;
4726;SDS011;2377;51.734;8.950;2022-09-02T08:13:29;4.13;;;1.80;;
4726;SDS011;2377;51.734;8.950;2022-09-02T08:15:56;3.90;;;1.80;;
4726;SDS011;2377;51.734;8.950;2022-09-02T08:18:24;3.50;;;1.70;;
4726;SDS011;2377;51.734;8.950;2022-09-02T08:20:53;5.23;;;2.00;;
4726;SDS011;2377;51.734;8.950;2022-09-02T08:23:20;4.03;;;1.80;;
4726;SDS011;2377;51.734;8.950;2022-09-02T08:25:47;2.60;;;1.70;;
4726;SDS011;2377;51.734;8.950;2022-09-02T08:28:14;3.23;;;1.70;;
4726;SDS011;2377;51.734;8.950;2022-09-02T08:30:41;2.87;;;1.67;;
4726;SDS011;2377;51.734;8.950;2022-09-02T08:33:10;5.00;;;1.50;;
4726;SDS011;2377;51.734;8.950;2022-09-02T08:35:37;3.30;;;1.60;;
4726;SDS011;2377;51.734;8.950;2022-09-02T08:38:05;3.70;;;2.00;;
4726;SDS011;2377;51.734;8.950;2022-09-02T08:40:34;4.03;;;1.80;;
4726;SDS011;2377;51.734;8.950;2022-09-02T08:43:08;3.60;;;2.00;;
4726;SDS011;2377;51.734;8.950;2022-09-02T08:45:51;5.23;;;1.70;;
4726;SDS011;2377;51.734;8.950;2022-09-02T08:48:20;4.00;;;1.73;;
4726;SDS011;2377;51.734;8.950;2022-09-02T08:51:01;2.90;;;1.80;;
4726;SDS011;2377;51.734;8.950;2022-09-02T08:53:35;5.63;;;2.03;;
4726;SDS011;2377;51.734;8.950;2022-09-02T08:56:15;5.07;;;1.80;;
4726;SDS011;2377;51.734;8.950;2022-09-02T08:58:43;3.73;;;1.83;;
4726;SDS011;2377;51.734;8.950;2022-09-02T09:01:19;4.60;;;1.90;;
4726;SDS011;2377;51.734;8.950;2022-09-02T09:04:10;4.50;;;1.90;;
4726;SDS011;2377;51.734;8.950;2022-09-02T09:06:55;7.30;;;1.80;;
4726;SDS011;2377;51.734;8.950;2022-09-02T09:09:46;6.27;;;1.57;;
4726;SDS011;2377;51.734;8.950;2022-09-02T09:12:32;5.20;;;1.90;;
4726;SDS011;2377;51.734;8.950;2022-09-02T09:15:30;4.60;;;1.90;;
4726;SDS011;2377;51.734;8.950;2022-09-02T09:18:06;3.23;;;1.90;;
4726;SDS011;2377;51.734;8.950;2022-09-02T09:20:37;4.27;;;1.70;;
4726;SDS011;2377;51.734;8.950;2022-09-02T09:23:08;3.27;;;2.10;;
4726;SDS011;2377;51.734;8.950;2022-09-02T09:25:58;6.20;;;1.90;;
4726;SDS011;2377;51.734;8.950;2022-09-02T09:28:36;3.37;;;1.90;;
4726;SDS011;2377;51.734;8.950;2022-09-02T09:31:08;4.97;;;1.87;;
4726;SDS011;2377;51.734;8.950;2022-09-02T09:33:38;8.40;;;2.00;;
4726;SDS011;2377;51.734;8.950;2022-09-02T09:36:19;4.50;;;1.80;;
4726;SDS011;2377;51.734;8.950;2022-09-02T09:39:24;3.73;;;1.73;;
4726;SDS011;2377;51.734;8.950;2022-09-02T09:41:56;5.00;;;2.03;;
4726;SDS011;2377;51.734;8.950;2022-09-02T09:44:33;2.93;;;1.57;;
4726;SDS011;2377;51.734;8.950;2022-09-02T09:47:15;2.67;;;1.50;;
4726;SDS011;2377;51.734;8.950;2022-09-02T09:49:44;3.17;;;1.70;;
4726;SDS011;2377;51.734;8.950;2022-09-02T09:52:23;3.47;;;1.77;;
4726;SDS011;2377;51.734;8.950;2022-09-02T09:57:46;4.00;;;1.70;;
4726;SDS011;2377;51.734;8.950;2022-09-02T10:00:18;3.30;;;1.53;;
4726;SDS011;2377;51.734;8.950;2022-09-02T10:02:53;6.23;;;1.60;;
4726;SDS011;2377;51.734;8.950;2022-09-02T10:05:30;3.60;;;1.70;;
4726;SDS011;2377;51.734;8.950;2022-09-02T10:08:01;2.50;;;1.50;;
4726;SDS011;2377;51.734;8.950;2022-09-02T10:10:53;5.07;;;1.60;;
4726;SDS011;2377;51.734;8.950;2022-09-02T10:13:29;3.10;;;1.80;;
4726;SDS011;2377;51.734;8.950;2022-09-02T10:16:07;3.03;;;1.60;;
4726;SDS011;2377;51.734;8.950;2022-09-02T10:18:53;3.93;;;1.70;;
4726;SDS011;2377;51.734;8.950;2022-09-02T10:21:30;3.70;;;1.43;;
4726;SDS011;2377;51.734;8.950;2022-09-02T10:24:24;2.77;;;1.50;;
4726;SDS011;2377;51.734;8.950;2022-09-02T10:27:15;3.07;;;1.70;;
4726;SDS011;2377;51.734;8.950;2022-09-02T10:29:56;4.20;;;1.77;;
4726;SDS011;2377;51.734;8.950;2022-09-02T10:32:35;4.93;;;1.63;;
4726;SDS011;2377;51.734;8.950;2022-09-02T10:35:20;4.40;;;1.83;;
4726;SDS011;2377;51.734;8.950;2022-09-02T10:37:59;3.87;;;1.60;;
4726;SDS011;2377;51.734;8.950;2022-09-02T10:40:42;2.90;;;1.43;;
4726;SDS011;2377;51.734;8.950;2022-09-02T10:43:18;7.37;;;2.03;;
4726;SDS011;2377;51.734;8.950;2022-09-02T10:46:08;2.83;;;1.53;;
4726;SDS011;2377;51.734;8.950;2022-09-02T10:48:44;3.03;;;1.73;;
4726;SDS011;2377;51.734;8.950;2022-09-02T10:51:28;3.53;;;1.70;;
4726;SDS011;2377;51.734;8.950;2022-09-02T10:54:16;3.37;;;1.60;;
4726;SDS011;2377;51.734;8.950;2022-09-02T10:57:01;6.80;;;1.90;;
4726;SDS011;2377;51.734;8.950;2022-09-02T10:59:37;5.60;;;1.73;;
4726;SDS011;2377;51.734;8.950;2022-09-02T11:02:12;2.50;;;1.60;;
4726;SDS011;2377;51.734;8.950;2022-09-02T11:04:47;3.27;;;1.67;;
4726;SDS011;2377;51.734;8.950;2022-09-02T11:07:20;2.80;;;1.40;;
4726;SDS011;2377;51.734;8.950;2022-09-02T11:09:55;3.17;;;1.60;;
4726;SDS011;2377;51.734;8.950;2022-09-02T11:12:31;4.20;;;1.83;;
4726;SDS011;2377;51.734;8.950;2022-09-02T11:15:05;8.03;;;2.07;;
4726;SDS011;2377;51.734;8.950;2022-09-02T11:17:45;3.30;;;1.70;;
4726;SDS011;2377;51.734;8.950;2022-09-02T11:20:26;3.47;;;1.73;;
4726;SDS011;2377;51.734;8.950;2022-09-02T11:23:03;3.17;;;1.60;;
4726;SDS011;2377;51.734;8.950;2022-09-02T11:25:44;2.60;;;1.67;;
4726;SDS011;2377;51.734;8.950;2022-09-02T11:28:26;2.57;;;1.50;;
4726;SDS011;2377;51.734;8.950;2022-09-02T11:31:02;3.90;;;1.67;;
4726;SDS011;2377;51.734;8.950;2022-09-02T11:33:44;3.73;;;1.50;;
4726;SDS011;2377;51.734;8.950;2022-09-02T11:36:21;2.60;;;1.43;;
4726;SDS011;2377;51.734;8.950;2022-09-02T11:38:51;4.23;;;1.60;;
4726;SDS011;2377;51.734;8.950;2022-09-02T11:41:27;2.80;;;1.50;;
4726;SDS011;2377;51.734;8.950;2022-09-02T11:44:19;5.10;;;1.60;;
4726;SDS011;2377;51.734;8.950;2022-09-02T11:47:22;4.30;;;1.70;;
4726;SDS011;2377;51.734;8.950;2022-09-02T11:50:27;3.40;;;1.60;;
4726;SDS011;2377;51.734;8.950;2022-09-02T11:53:23;3.30;;;1.90;;
4726;SDS011;2377;51.734;8.950;2022-09-02T11:55:56;2.63;;;1.50;;
4726;SDS011;2377;51.734;8.950;2022-09-02T11:58:33;3.03;;;1.60;;
4726;SDS011;2377;51.734;8.950;2022-09-02T12:01:22;2.50;;;1.70;;
4726;SDS011;2377;51.734;8.950;2022-09-02T12:03:57;2.73;;;1.63;;
4726;SDS011;2377;51.734;8.950;2022-09-02T12:06:31;4.83;;;1.67;;
4726;SDS011;2377;51.734;8.950;2022-09-02T12:09:00;2.77;;;1.50;;
4726;SDS011;2377;51.734;8.950;2022-09-02T12:11:39;2.93;;;1.60;;
4726;SDS011;2377;51.734;8.950;2022-09-02T12:21:02;2.80;;;1.50;;
4726;SDS011;2377;51.734;8.950;2022-09-02T12:29:42;2.87;;;1.53;;
4726;SDS011;2377;51.734;8.950;2022-09-02T12:32:09;2.67;;;1.53;;
4726;SDS011;2377;51.734;8.950;2022-09-02T12:34:53;2.77;;;1.50;;
4726;SDS011;2377;51.734;8.950;2022-09-02T12:40:33;3.53;;;1.50;;
4726;SDS011;2377;51.734;8.950;2022-09-02T12:43:13;2.80;;;1.63;;
4726;SDS011;2377;51.734;8.950;2022-09-02T12:45:50;5.10;;;1.77;;
4726;SDS011;2377;51.734;8.950;2022-09-02T12:48:34;3.23;;;1.73;;
4726;SDS011;2377;51.734;8.950;2022-09-02T12:51:13;4.03;;;1.90;;
4726;SDS011;2377;51.734;8.950;2022-09-02T12:54:19;3.40;;;1.80;;
4726;SDS011;2377;51.734;8.950;2022-09-02T12:56:58;2.50;;;1.40;;
4726;SDS011;2377;51.734;8.950;2022-09-02T12:59:27;2.50;;;1.50;;
4726;SDS011;2377;51.734;8.950;2022-09-02T13:02:00;2.70;;;1.57;;
4726;SDS011;2377;51.734;8.950;2022-09-02T13:04:45;2.90;;;1.60;;
4726;SDS011;2377;51.734;8.950;2022-09-02T13:07:57;2.87;;;1.60;;
4726;SDS011;2377;51.734;8.950;2022-09-02T13:14:41;2.50;;;1.60;;
4726;SDS011;2377;51.734;8.950;2022-09-02T13:17:39;4.13;;;1.80;;
4726;SDS011;2377;51.734;8.950;2022-09-02T13:20:22;3.30;;;1.70;;
4726;SDS011;2377;51.734;8.950;2022-09-02T13:23:37;3.07;;;1.70;;
4726;SDS011;2377;51.734;8.950;2022-09-02T13:27:10;5.00;;;1.57;;
4726;SDS011;2377;51.734;8.950;2022-09-02T13:30:13;3.00;;;1.40;;
4726;SDS011;2377;51.734;8.950;2022-09-02T13:32:53;3.10;;;1.67;;
4726;SDS011;2377;51.734;8.950;2022-09-02T13:35:25;2.77;;;1.60;;
4726;SDS011;2377;51.734;8.950;2022-09-02T13:37:54;3.10;;;1.67;;
4726;SDS011;2377;51.734;8.950;2022-09-02T13:40:25;3.63;;;1.70;;
4726;SDS011;2377;51.734;8.950;2022-09-02T13:42:58;3.57;;;1.60;;
4726;SDS011;2377;51.734;8.950;2022-09-02T13:45:29;3.67;;;1.70;;
4726;SDS011;2377;51.734;8.950;2022-09-02T13:48:00;4.70;;;1.80;;
4726;SDS011;2377;51.734;8.950;2022-09-02T13:50:35;4.27;;;1.80;;
4726;SDS011;2377;51.734;8.950;2022-09-02T13:53:09;4.77;;;1.70;;
4726;SDS011;2377;51.734;8.950;2022-09-02T13:55:47;3.00;;;1.47;;
4726;SDS011;2377;51.734;8.950;2022-09-02T13:58:21;4.93;;;1.50;;
4726;SDS011;2377;51.734;8.950;2022-09-02T14:01:18;2.50;;;1.63;;
4726;SDS011;2377;51.734;8.950;2022-09-02T14:03:49;3.13;;;1.60;;
4726;SDS011;2377;51.734;8.950;2022-09-02T14:06:19;2.90;;;1.40;;
4726;SDS011;2377;51.734;8.950;2022-09-02T14:08:50;3.77;;;1.60;;
4726;SDS011;2377;51.734;8.950;2022-09-02T14:11:22;3.30;;;1.50;;
4726;SDS011;2377;51.734;8.950;2022-09-02T14:13:51;2.80;;;1.40;;
4726;SDS011;2377;51.734;8.950;2022-09-02T14:16:29;2.93;;;1.40;;
4726;SDS011;2377;51.734;8.950;2022-09-02T14:19:08;2.77;;;1.60;;
4726;SDS011;2377;51.734;8.950;2022-09-02T14:21:48;2.73;;;1.47;;
4726;SDS011;2377;51.734;8.950;2022-09-02T14:24:19;2.47;;;1.43;;
4726;SDS011;2377;51.734;8.950;2022-09-02T14:26:48;2.60;;;1.50;;
4726;SDS011;2377;51.734;8.950;2022-09-02T14:29:20;2.30;;;1.47;;
4726;SDS011;2377;51.734;8.950;2022-09-02T14:32:02;2.70;;;1.50;;
4726;SDS011;2377;51.734;8.950;2022-09-02T14:34:38;4.17;;;1.53;;
4726;SDS011;2377;51.734;8.950;2022-09-02T14:37:14;3.43;;;1.20;;
4726;SDS011;2377;51.734;8.950;2022-09-02T14:40:04;2.50;;;1.43;;
4726;SDS011;2377;51.734;8.950;2022-09-02T14:42:41;4.50;;;1.50;;
4726;SDS011;2377;51.734;8.950;2022-09-02T14:45:12;3.17;;;1.60;;
4726;SDS011;2377;51.734;8.950;2022-09-02T14:47:50;2.63;;;1.63;;
4726;SDS011;2377;51.734;8.950;2022-09-02T14:50:18;8.23;;;1.77;;
4726;SDS011;2377;51.734;8.950;2022-09-02T14:52:55;5.63;;;1.77;;
4726;SDS011;2377;51.734;8.950;2022-09-02T14:55:42;3.50;;;1.50;;
4726;SDS011;2377;51.734;8.950;2022-09-02T14:58:15;3.70;;;1.40;;
4726;SDS011;2377;51.734;8.950;2022-09-02T15:00:43;3.23;;;1.50;;
4726;SDS011;2377;51.734;8.950;2022-09-02T15:03:17;3.63;;;1.40;;
4726;SDS011;2377;51.734;8.950;2022-09-02T15:05:46;2.40;;;1.40;;
4726;SDS011;2377;51.734;8.950;2022-09-02T15:08:14;2.60;;;1.40;;
4726;SDS011;2377;51.734;8.950;2022-09-02T15:10:42;2.40;;;1.30;;
4726;SDS011;2377;51.734;8.950;2022-09-02T15:13:11;4.03;;;1.30;;
4726;SDS011;2377;51.734;8.950;2022-09-02T15:15:44;3.03;;;1.57;;
4726;SDS011;2377;51.734;8.950;2022-09-02T15:18:11;2.20;;;1.40;;
4726;SDS011;2377;51.734;8.950;2022-09-02T15:20:39;2.90;;;1.50;;
4726;SDS011;2377;51.734;8.950;2022-09-02T15:23:06;3.83;;;1.40;;
4726;SDS011;2377;51.734;8.950;2022-09-02T15:25:33;2.30;;;1.33;;
4726;SDS011;2377;51.734;8.950;2022-09-02T15:28:01;5.27;;;1.60;;
4726;SDS011;2377;51.734;8.950;2022-09-02T15:30:28;2.80;;;1.60;;
4726;SDS011;2377;51.734;8.950;2022-09-02T15:32:55;33.97;;;2.40;;
4726;SDS011;2377;51.734;8.950;2022-09-02T15:35:22;3.63;;;1.50;;
4726;SDS011;2377;51.734;8.950;2022-09-02T15:37:50;2.60;;;1.50;;
4726;SDS011;2377;51.734;8.950;2022-09-02T15:40:17;3.40;;;1.70;;
4726;SDS011;2377;51.734;8.950;2022-09-02T15:42:45;3.43;;;1.70;;
4726;SDS011;2377;51.734;8.950;2022-09-02T15:45:12;2.60;;;1.40;;
4726;SDS011;2377;51.734;8.950;2022-09-02T15:47:39;3.90;;;1.67;;
4726;SDS011;2377;51.734;8.950;2022-09-02T15:50:06;2.63;;;1.53;;
4726;SDS011;2377;51.734;8.950;2022-09-02T15:52:34;2.90;;;1.77;;
4726;SDS011;2377;51.734;8.950;2022-09-02T15:55:03;3.13;;;1.43;;
4726;SDS011;2377;51.734;8.950;2022-09-02T15:57:31;2.50;;;1.53;;
4726;SDS011;2377;51.734;8.950;2022-09-02T15:59:58;2.33;;;1.40;;
4726;SDS011;2377;51.734;8.950;2022-09-02T16:02:25;2.73;;;1.33;;
4726;SDS011;2377;51.734;8.950;2022-09-02T16:04:52;2.27;;;1.33;;
4726;SDS011;2377;51.734;8.950;2022-09-02T16:07:20;7.80;;;1.70;;
4726;SDS011;2377;51.734;8.950;2022-09-02T16:09:48;4.17;;;1.80;;
4726;SDS011;2377;51.734;8.950;2022-09-02T16:12:16;3.60;;;1.63;;